Flight Track Log - Related Links

Times and Time Zones

All times are in EDT time to prevent confusion due to time zone crossing. See the EJA904 flight status page for this flight to view local times or setup timezone preferences in your user account.

Time Position Orientation Groundspeed Altitude Reporting Facility
EDT Latitude Longitude Course Direction KTS MPH feet Rate Location/Type
Mon 07:33:00 PM 43.1424 -114.0626 228° Southwest  Level Estimated
Mon 07:33:20 PM 43.4544 -113.3464 171° South 266 306 11,400  Level Salt Lake Center
Mon 07:34:00 PM 43.0650 -114.1829 225° Southwest  Level Estimated
Mon 07:34:22 PM 43.3536 -113.2939 159° South 323 372 13,800  Level Salt Lake Center
Mon 07:35:00 PM 42.9876 -114.3029 224° Southwest  Level Estimated
Mon 07:35:24 PM 43.2797 -113.2025 138° Southeast 370 426 15,800  Level Salt Lake Center
Mon 07:36:00 PM 42.8864 -114.3831 210° Southwest  Level FlightAware Approximate
Mon 07:36:26 PM 43.1806 -113.2694 206° Southwest 359 413 17,800  Level Salt Lake Center
Mon 07:37:00 PM 42.7850 -114.4629 210° Southwest  Level FlightAware Approximate
Mon 07:37:28 PM 43.1050 -113.3550 220° Southwest 365 420 19,500  Level Salt Lake Center
Mon 07:38:30 PM 43.0281 -113.4475 221° Southwest 378 435 21,200 1,707 Climbing Salt Lake Center
Mon 07:39:31 PM 42.9356 -113.5536 220° Southwest 388 447 23,000 1,659 Climbing Salt Lake Center
Mon 07:40:33 PM 42.8550 -113.6472 220° Southwest 395 455 24,600 1,694 Climbing Salt Lake Center
Mon 07:41:35 PM 42.7594 -113.7569 220° Southwest 401 461 26,500 1,694 Climbing Salt Lake Center
Mon 07:42:37 PM 42.6678 -113.8619 220° Southwest 408 470 28,100 1,500 Climbing Salt Lake Center
Mon 07:43:39 PM 42.5758 -113.9644 219° Southwest 423 487 29,600 1,452 Climbing Salt Lake Center
Mon 07:44:41 PM 42.4861 -114.0658 220° Southwest 422 486 31,100 1,452 Climbing Salt Lake Center
Mon 07:45:43 PM 42.3944 -114.1692 220° Southwest 428 493 32,600 1,452 Climbing Salt Lake Center
Mon 07:46:45 PM 42.3006 -114.2731 219° Southwest 436 502 34,100 1,597 Climbing Salt Lake Center
Mon 07:47:47 PM 42.1861 -114.3989 219° Southwest 443 510 35,900 1,597 Climbing Salt Lake Center
Mon 07:48:49 PM 42.0900 -114.5053 219° Southwest 447 514 37,400 1,452 Climbing Salt Lake Center
Mon 07:49:51 PM 41.9897 -114.6178 220° Southwest 454 522 38,900 1,258 Climbing Salt Lake Center
Mon 07:50:53 PM 41.8967 -114.7181 219° Southwest 449 517 40,000 532 Climbing Salt Lake Center
Mon 07:51:55 PM 41.7861 -114.8381 219° Southwest 456 525 40,000  Level Salt Lake Center
Mon 07:52:57 PM 41.6886 -114.9433 219° Southwest 466 536 40,000  Level Salt Lake Center
Mon 07:53:59 PM 41.5811 -115.0747 222° Southwest 467 537 40,000  Level Salt Lake Center
Mon 07:55:01 PM 41.5256 -115.2256 244° Southwest 471 542 40,000  Level Salt Lake Center
Mon 07:56:03 PM 41.4544 -115.3917 240° Southwest 464 534 40,000  Level Salt Lake Center
Mon 07:57:05 PM 41.3942 -115.5353 241° Southwest 464 534 40,000  Level Salt Lake Center
Mon 07:58:07 PM 41.3339 -115.6772 241° Southwest 462 532 40,000  Level Salt Lake Center
Mon 07:59:09 PM 41.2636 -115.8439 241° Southwest 462 532 40,000  Level Salt Lake Center
Mon 08:00:11 PM 41.2039 -115.9858 241° Southwest 462 532 40,000  Level Salt Lake Center
Mon 08:01:13 PM 41.1306 -116.1506 239° Southwest 463 533 40,000  Level Salt Lake Center
Mon 08:02:15 PM 41.0717 -116.2933 241° Southwest 463 533 40,000  Level Salt Lake Center
Mon 08:03:17 PM 41.0011 -116.4578 240° Southwest 462 532 40,000  Level Salt Lake Center
Mon 08:04:18 PM 40.9378 -116.5986 239° Southwest 464 534 40,000  Level Salt Lake Center
Mon 08:05:20 PM 40.8667 -116.7628 240° Southwest 464 534 40,000  Level Salt Lake Center
Mon 08:06:22 PM 40.8047 -116.9033 240° Southwest 464 534 40,000  Level Salt Lake Center
Mon 08:07:24 PM 40.7317 -117.0664 239° Southwest 466 536 40,000  Level Salt Lake Center
Mon 08:08:26 PM 40.6703 -117.2053 240° Southwest 464 534 40,000  Level Salt Lake Center
Mon 08:09:28 PM 40.5978 -117.3689 240° Southwest 466 536 40,000  Level Salt Lake Center
Mon 08:10:30 PM 40.5297 -117.5042 237° Southwest 467 537 40,000  Level Salt Lake Center
Mon 08:11:31 PM 40.4139 -117.6161 216° Southwest 464 534 40,000  Level Salt Lake Center
Mon 08:12:33 PM 40.3133 -117.7089 215° Southwest 463 533 40,000  Level Salt Lake Center
Mon 08:13:35 PM 40.1936 -117.8167 215° Southwest 467 537 40,000  Level Salt Lake Center
Mon 08:14:36 PM 40.1047 -117.9000 216° Southwest 467 537 40,000  Level Oakland Center
Mon 08:15:37 PM 39.9775 -118.0156 215° Southwest 464 534 40,000  Level Oakland Center
Mon 08:16:38 PM 39.8717 -118.1106 215° Southwest 462 532 40,000  Level Oakland Center
Mon 08:17:40 PM 39.7656 -118.2067 215° Southwest 464 534 40,000  Level Oakland Center
Mon 08:18:41 PM 39.6606 -118.3011 215° Southwest 460 529 40,000  Level Oakland Center
Mon 08:19:42 PM 39.5542 -118.3964 215° Southwest 460 529 40,000  Level Oakland Center
Mon 08:20:44 PM 39.4408 -118.4967 214° Southwest 461 531 40,000 -488 Level Oakland Center
Mon 08:21:45 PM 39.3347 -118.5883 214° Southwest 459 528 39,000 -1,230 Descending Oakland Center
Mon 08:22:46 PM 39.2303 -118.6825 215° Southwest 459 528 37,500 -1,463 Descending Oakland Center
Mon 08:23:48 PM 39.1231 -118.7758 214° Southwest 462 532 36,000 -1,415 Descending Oakland Center
Mon 08:24:49 PM 39.0169 -118.8700 215° Southwest 461 531 34,600 -1,426 Descending Oakland Center
Mon 08:25:50 PM 38.9119 -118.9631 215° Southwest 459 528 33,100 -1,268 Descending Oakland Center
Mon 08:26:52 PM 38.8053 -119.0556 214° Southwest 460 529 32,000 -537 Descending Oakland Center
Mon 08:27:53 PM 38.6969 -119.1486 214° Southwest 468 539 32,000  Level Oakland Center
Mon 08:28:55 PM 38.5903 -119.2431 215° Southwest 465 535 32,000  Level Oakland Center
Mon 08:29:56 PM 38.4597 -119.3533 213° Southwest 468 539 32,000  Level Oakland Center
Mon 08:30:57 PM 38.3519 -119.4467 214° Southwest 468 539 32,000  Level Oakland Center
Mon 08:31:59 PM 38.2597 -119.5269 214° Southwest 470 541 32,000  Level Oakland Center
Mon 08:33:00 PM 38.1278 -119.6383 214° Southwest 472 543 32,000 -295 Level Oakland Center
Mon 08:34:01 PM 38.0194 -119.7300 214° Southwest 470 541 31,400 -1,268 Descending Oakland Center
Mon 08:35:03 PM 37.9097 -119.8222 214° Southwest 471 542 29,400 -2,000 Descending Oakland Center
Mon 08:36:04 PM 37.8028 -119.9147 214° Southwest 468 539 27,300 -2,066 Descending Oakland Center
Mon 08:37:05 PM 37.6894 -120.0089 213° Southwest 463 533 25,200 -1,902 Descending Oakland Center
Mon 08:38:07 PM 37.5911 -120.0917 214° Southwest 451 519 23,400 -1,805 Descending Oakland Center
Mon 08:39:08 PM 37.4892 -120.1767 213° Southwest 442 509 21,500 -1,672 Descending Oakland Center
Mon 08:40:09 PM 37.3881 -120.2606 213° Southwest 435 501 20,000 -732 Descending Oakland Center
Mon 08:41:11 PM 37.2886 -120.3436 214° Southwest 431 496 20,000 -1,598 Level Oakland Center
Mon 08:43:00 PM 37.1813 -120.5343 254° West  Level FlightAware Approximate
Mon 08:43:13 PM 37.1758 -120.5961 254° West 435 501 15,100  Level Oakland Center
Mon 08:45:14 PM 37.1167 -120.8833 256° West 399 459 11,000 -1,392 Descending Northern Cal TRACON
Mon 08:46:14 PM 37.0833 -121.0167 253° West 398 458 10,900 -288 Descending Northern Cal TRACON
Mon 08:47:19 PM 37.0022 -121.0961 218° Southwest 355 409 10,400 -952 Descending Oakland Center
Mon 08:48:20 PM 36.9411 -121.1608 220° Southwest 317 365 8,900 -1,230 Descending Oakland Center
Mon 08:49:21 PM 36.9217 -121.2525 255° West 277 319 7,900 -439 Descending Oakland Center
Mon 08:50:23 PM 36.9289 -121.3467 276° West 293 337 8,000 49 Climbing Oakland Center
Mon 08:51:24 PM 36.9731 -121.4278 304° West 285 328 8,000  Level Oakland Center
Mon 08:52:26 PM 37.0136 -121.5128 301° West 284 327 8,000 -390 Level Oakland Center
Mon 08:53:27 PM 37.0544 -121.5931 303° West 277 319 7,200 -1,082 Descending Oakland Center
Mon 08:54:28 PM 37.1222 -121.6675 319° Northwest 272 313 5,800 -1,158 Descending Oakland Center
Mon 08:55:21 PM 37.1667 -121.7167 319° Northwest 262 302 5,000 -1,221 Descending Northern Cal TRACON
Mon 08:56:21 PM 37.2167 -121.7833 313° West 249 287 3,500 -1,100 Descending Northern Cal TRACON
Mon 08:57:21 PM 37.2667 -121.8167 332° Northwest 160 184 2,800 -750 Descending Northern Cal TRACON
Mon 08:58:21 PM 37.2833 -121.8500 302° West 127 146 2,000 -700 Descending Northern Cal TRACON
Mon 08:59:21 PM 37.3167 -121.8833 322° Northwest 131 151 1,400 -800 Descending Northern Cal TRACON
Mon 09:00:21 PM 37.3500 -121.9000 338° Northwest 126 145 400 -1,000 Descending Northern Cal TRACON
Mon 09:02:00 PM 37.3500 -121.9167 North  Level FlightAware Approximate
Mon 09:09:00 PM 37.3627 -121.9291 North  Level Estimated

Login

Don't have an account? Register now (free) for customized features, flight alerts, and more!